Time;durP1;ratioP1;P1;durP2;ratioP2;P2;SDS_P1;SDS_P2;PMS_P1;PMS_P2;Temp;Humidity;BMP_temperature;BMP_pressure;BME280_temperature;BME280_humidity;BME280_pressure;Samples;Min_cycle;Max_cycle;Signal;HPM_P1;HPM_P2
2023/03/30 00:01:39;;;;;;;13.40;8.10;;;;;;;2.98;54.70;99414.98;439277;1253;138559;-75
2023/03/30 00:11:46;;;;;;;14.90;8.30;;;;;;;3.06;55.01;99404.13;439030;1251;139856;-76
2023/03/30 00:21:52;;;;;;;14.40;7.80;;;;;;;3.14;55.05;99389.66;439252;1251;138002;-75
2023/03/30 00:31:58;;;;;;;11.90;8.20;;;;;;;3.21;55.23;99385.77;439269;1251;139097;-75
2023/03/30 00:42:04;;;;;;;12.40;7.70;;;;;;;3.26;55.54;99382.30;439854;1251;138999;-75
2023/03/30 00:52:12;;;;;;;13.00;7.90;;;;;;;3.32;55.41;99368.08;439811;1251;138847;-75
2023/03/30 01:02:20;;;;;;;8.90;5.80;;;;;;;3.36;55.72;99360.46;439440;1250;138396;-74
2023/03/30 01:12:27;;;;;;;9.30;7.00;;;;;;;3.41;56.03;99352.02;439389;1249;139322;-75
2023/03/30 01:23:11;;;;;;;9.50;6.40;;;;;;;3.42;55.96;99340.85;439382;1251;137728;-76
2023/03/30 01:33:40;;;;;;;10.20;6.20;;;;;;;3.42;56.49;99341.58;439527;1251;138229;-74
2023/03/30 01:43:52;;;;;;;9.80;5.70;;;;;;;3.42;57.01;99323.23;439745;1250;139891;-75
2023/03/30 01:54:05;;;;;;;9.30;5.90;;;;;;;3.43;57.53;99312.80;439587;1251;137850;-74
2023/03/30 02:04:12;;;;;;;9.60;6.30;;;;;;;3.44;57.84;99309.13;440196;1253;137654;-75
2023/03/30 02:14:21;;;;;;;8.70;6.00;;;;;;;3.46;58.25;99309.58;439745;1252;139444;-75
2023/03/30 02:24:30;;;;;;;9.90;5.20;;;;;;;3.52;58.86;99304.52;439604;1250;137693;-75
2023/03/30 02:34:51;;;;;;;10.30;6.10;;;;;;;3.57;59.25;99295.47;439646;1253;137542;-76
2023/03/30 02:45:14;;;;;;;9.80;5.60;;;;;;;3.62;59.79;99289.04;439926;1251;137855;-76
2023/03/30 02:55:24;;;;;;;9.50;6.60;;;;;;;3.68;60.24;99284.16;439833;1250;137840;-77
2023/03/30 03:05:32;;;;;;;7.30;5.50;;;;;;;3.71;60.39;99274.66;439501;1250;138761;-75
2023/03/30 03:15:38;;;;;;;9.70;6.50;;;;;;;3.75;60.75;99259.97;439752;1251;137772;-76
2023/03/30 03:25:44;;;;;;;5.70;4.70;;;;;;;3.77;60.97;99248.08;439521;1253;138529;-76
2023/03/30 03:35:52;;;;;;;10.90;7.10;;;;;;;3.79;61.06;99231.56;439605;1253;138739;-74
2023/03/30 03:45:59;;;;;;;8.90;7.10;;;;;;;3.79;61.55;99228.98;439656;1253;138731;-75
2023/03/30 03:56:05;;;;;;;18.40;12.50;;;;;;;3.78;62.00;99221.92;439347;1250;138253;-75
2023/03/30 04:06:11;;;;;;;14.70;9.70;;;;;;;3.78;62.43;99201.64;439370;1251;139875;-75
2023/03/30 04:16:16;;;;;;;15.70;8.80;;;;;;;3.79;62.52;99193.31;439506;1250;139025;-75
2023/03/30 04:26:22;;;;;;;13.70;8.30;;;;;;;3.76;62.97;99185.30;439446;1253;138480;-75
2023/03/30 04:36:29;;;;;;;6.70;5.00;;;;;;;3.82;63.01;99172.58;439582;1250;139011;-77
2023/03/30 04:46:36;;;;;;;10.30;5.40;;;;;;;3.88;63.32;99164.35;439830;1251;139377;-76
2023/03/30 04:56:41;;;;;;;10.40;7.20;;;;;;;3.94;63.67;99153.70;439686;1250;139547;-75
2023/03/30 05:06:48;;;;;;;8.00;5.90;;;;;;;4.06;63.94;99144.89;439993;1250;139516;-77
2023/03/30 05:16:54;;;;;;;13.00;7.80;;;;;;;4.20;64.61;99140.29;439919;1251;138584;-75
2023/03/30 05:27:01;;;;;;;9.10;6.70;;;;;;;4.30;65.26;99147.80;439323;1250;139722;-75
2023/03/30 05:37:07;;;;;;;13.20;9.60;;;;;;;4.38;66.04;99145.85;439964;1249;139604;-75
2023/03/30 05:47:12;;;;;;;9.70;7.80;;;;;;;4.44;66.78;99141.61;439685;1253;139038;-74
2023/03/30 05:57:18;;;;;;;9.90;7.40;;;;;;;4.56;66.92;99142.28;439324;1250;139235;-76
2023/03/30 06:07:24;;;;;;;8.70;6.40;;;;;;;4.67;67.20;99136.27;439062;1251;139113;-75
2023/03/30 06:17:30;;;;;;;10.20;6.30;;;;;;;4.89;67.07;99124.96;439392;1250;138434;-74
2023/03/30 06:27:36;;;;;;;16.50;8.60;;;;;;;5.05;67.05;99116.75;438923;1250;139571;-75
2023/03/30 06:37:42;;;;;;;11.40;7.60;;;;;;;5.31;66.82;99110.46;439299;1251;138891;-76
2023/03/30 06:47:47;;;;;;;9.80;6.80;;;;;;;5.68;66.63;99113.27;439264;1250;139013;-76
2023/03/30 06:57:53;;;;;;;10.70;7.10;;;;;;;6.21;66.11;99106.21;439205;1250;139160;-75
2023/03/30 07:07:59;;;;;;;13.90;8.30;;;;;;;7.87;65.01;99095.54;439118;1251;139161;-77
2023/03/30 07:18:05;;;;;;;14.70;9.20;;;;;;;10.43;61.85;99086.55;439311;1251;139838;-71
2023/03/30 07:28:11;;;;;;;11.60;7.00;;;;;;;12.32;58.55;99077.20;439161;1253;138658;-72
2023/03/30 07:38:17;;;;;;;16.00;7.80;;;;;;;14.40;54.95;99065.52;438981;1251;139207;-73
2023/03/30 07:48:23;;;;;;;6.40;3.80;;;;;;;15.06;52.81;99051.73;438938;1253;139706;-73
2023/03/30 07:58:30;;;;;;;5.60;5.10;;;;;;;18.21;49.87;99029.99;438993;1250;139770;-72
2023/03/30 08:08:39;;;;;;;4.80;4.40;;;;;;;23.88;43.82;99017.29;439651;1250;138454;-72
2023/03/30 08:18:46;;;;;;;6.50;3.80;;;;;;;25.68;39.68;99007.43;439699;1253;139308;-72
2023/03/30 08:28:52;;;;;;;4.40;4.00;;;;;;;26.80;37.12;99000.02;439319;1253;138399;-71
2023/03/30 08:38:58;;;;;;;3.20;3.00;;;;;;;25.72;35.34;98997.98;439130;1250;139514;-72
2023/03/30 08:49:12;;;;;;;4.80;4.00;;;;;;;21.96;35.91;99006.15;439198;1250;140074;-72
2023/03/30 08:59:28;;;;;;;4.00;3.10;;;;;;;18.38;38.46;99007.80;439033;1251;137911;-73
2023/03/30 09:09:40;;;;;;;3.30;3.00;;;;;;;15.54;41.12;98995.10;439610;1249;140481;-72
2023/03/30 09:19:52;;;;;;;5.40;3.50;;;;;;;13.71;43.91;98972.61;439711;1251;139185;-72
2023/03/30 09:30:09;;;;;;;4.40;3.40;;;;;;;14.46;45.47;98940.84;439435;1253;138196;-75
2023/03/30 09:40:31;;;;;;;6.50;3.70;;;;;;;15.51;44.55;98935.29;439368;1250;137902;-73
2023/03/30 09:50:40;;;;;;;3.70;3.30;;;;;;;14.95;45.08;98916.73;439188;1253;137953;-73
2023/03/30 10:01:00;;;;;;;3.60;2.60;;;;;;;14.52;46.23;98891.79;439017;1250;138970;-73
2023/03/30 10:11:06;;;;;;;6.30;3.60;;;;;;;13.95;47.34;98880.98;439351;1251;139161;-73
2023/03/30 10:21:26;;;;;;;3.50;2.80;;;;;;;13.22;48.40;98868.17;438947;1253;140155;-71
2023/03/30 10:31:36;;;;;;;2.50;2.00;;;;;;;13.04;49.85;98843.12;439059;1251;140299;-73
2023/03/30 10:41:44;;;;;;;5.30;2.40;;;;;;;13.25;50.35;98830.29;438936;1251;138914;-72
2023/03/30 10:52:02;;;;;;;4.40;4.00;;;;;;;13.00;51.10;98800.13;439023;1251;149139;-72
2023/03/30 11:02:26;;;;;;;;;;;;;;;12.74;51.75;98811.98;438927;1250;138177;-72
2023/03/30 11:12:39;;;;;;;8.60;6.50;;;;;;;12.71;52.49;98808.52;439348;1251;126178;-72
2023/03/30 11:22:49;;;;;;;4.30;3.20;;;;;;;13.43;51.99;98794.83;439065;1251;138957;-72
2023/03/30 11:33:02;;;;;;;4.40;3.60;;;;;;;13.62;51.91;98785.80;439005;1251;138520;-72
2023/03/30 11:43:11;;;;;;;7.90;3.50;;;;;;;14.21;51.44;98760.70;438998;1251;138021;-73
2023/03/30 11:53:28;;;;;;;6.60;3.90;;;;;;;14.97;50.47;98750.34;439299;1251;139004;-72
2023/03/30 12:03:43;;;;;;;4.20;3.30;;;;;;;14.94;49.99;98746.60;439269;1253;138083;-73
2023/03/30 12:13:50;;;;;;;5.80;3.90;;;;;;;14.61;50.21;98737.49;439158;1251;138181;-73
2023/03/30 12:24:04;;;;;;;5.70;3.90;;;;;;;14.58;50.40;98734.84;438844;1250;139301;-73
2023/03/30 12:34:10;;;;;;;4.00;2.80;;;;;;;14.36;50.78;98718.20;438942;1253;138865;-74
2023/03/30 12:44:35;;;;;;;6.20;3.80;;;;;;;13.97;51.56;98710.33;439230;1251;138618;-72
2023/03/30 12:55:12;;;;;;;6.30;3.70;;;;;;;13.71;52.57;98703.88;439732;1253;138162;-71
2023/03/30 13:05:24;;;;;;;4.50;4.10;;;;;;;13.52;53.04;98691.88;439180;1251;138803;-73
2023/03/30 13:15:41;;;;;;;4.30;3.70;;;;;;;13.61;53.38;98675.80;439436;1253;137974;-71
2023/03/30 13:25:53;;;;;;;6.40;4.60;;;;;;;13.81;53.36;98666.55;439124;1253;138967;-72
2023/03/30 13:36:09;;;;;;;11.20;4.50;;;;;;;13.82;53.50;98654.14;439273;1251;138195;-73
2023/03/30 13:46:27;;;;;;;5.40;4.10;;;;;;;13.68;54.64;98665.83;439572;1253;138388;-75
2023/03/30 13:56:35;;;;;;;3.90;3.30;;;;;;;13.34;55.64;98680.23;439205;1253;140244;-75
2023/03/30 14:06:45;;;;;;;8.30;4.60;;;;;;;12.67;57.12;98685.48;439826;1251;138069;-75
2023/03/30 14:16:52;;;;;;;6.60;4.50;;;;;;;12.20;58.98;98685.23;440048;1253;138746;-75
2023/03/30 14:27:05;;;;;;;5.70;4.40;;;;;;;12.06;60.41;98663.77;440907;1251;138833;-76
2023/03/30 14:37:12;;;;;;;9.30;6.40;;;;;;;11.95;61.33;98644.88;440555;1253;139506;-78
2023/03/30 14:47:22;;;;;;;10.70;6.90;;;;;;;11.76;62.14;98635.73;439499;1251;138771;-75
2023/03/30 14:57:28;;;;;;;12.60;7.00;;;;;;;11.66;62.93;98610.14;439568;1253;138983;-76
2023/03/30 15:07:35;;;;;;;7.70;6.70;;;;;;;11.75;63.47;98587.81;439598;1253;138969;-78
2023/03/30 15:17:46;;;;;;;7.60;6.00;;;;;;;11.96;63.52;98577.62;439691;1251;138828;-78
2023/03/30 15:27:55;;;;;;;8.90;6.70;;;;;;;11.98;63.57;98563.58;439395;1253;138588;-76
2023/03/30 15:38:03;;;;;;;13.00;8.10;;;;;;;12.00;63.76;98549.33;439139;1253;139123;-77
2023/03/30 15:48:11;;;;;;;11.30;7.80;;;;;;;12.01;63.99;98531.56;439213;1251;139891;-70
2023/03/30 15:58:27;;;;;;;12.50;8.20;;;;;;;12.00;64.27;98517.27;437849;1253;140015;-67
2023/03/30 16:08:33;;;;;;;11.10;6.40;;;;;;;11.90;64.55;98507.30;436827;1253;138958;-67
2023/03/30 16:18:39;;;;;;;13.70;7.50;;;;;;;11.76;64.93;98491.65;440243;1251;142366;-71
2023/03/30 16:28:49;;;;;;;12.40;8.60;;;;;;;11.64;65.40;98481.98;437121;1253;139354;-68
2023/03/30 16:38:55;;;;;;;14.10;9.50;;;;;;;11.54;65.88;98483.71;436401;1254;139514;-68
2023/03/30 16:49:01;;;;;;;20.50;10.70;;;;;;;11.47;66.51;98477.81;436691;1255;139153;-68
2023/03/30 16:59:16;;;;;;;12.50;7.00;;;;;;;11.41;67.36;98478.67;437008;1251;139142;-68
2023/03/30 17:09:22;;;;;;;15.00;9.00;;;;;;;11.35;68.02;98477.73;436596;1254;140157;-68
2023/03/30 17:19:28;;;;;;;12.70;9.20;;;;;;;11.30;69.09;98469.60;437300;1251;139728;-72
2023/03/30 17:29:34;;;;;;;10.30;7.80;;;;;;;11.19;69.99;98448.93;437394;1255;140935;-67
2023/03/30 17:39:40;;;;;;;14.40;7.20;;;;;;;11.10;70.66;98462.52;437227;1251;139970;-67
2023/03/30 17:49:47;;;;;;;15.90;8.10;;;;;;;11.02;71.26;98461.23;436987;1251;139583;-67
2023/03/30 17:59:53;;;;;;;13.90;9.30;;;;;;;10.96;71.56;98460.67;437059;1253;140260;-68
2023/03/30 18:09:59;;;;;;;19.10;8.80;;;;;;;10.91;72.08;98469.33;437414;1250;140242;-68
2023/03/30 18:20:15;;;;;;;12.00;8.40;;;;;;;10.78;73.21;98467.77;437022;1254;140406;-68
2023/03/30 18:30:27;;;;;;;11.30;7.90;;;;;;;10.65;73.83;98478.98;437453;1254;140643;-67
2023/03/30 18:40:35;;;;;;;15.50;10.10;;;;;;;10.59;74.50;98492.23;437026;1254;140324;-68
2023/03/30 18:50:44;;;;;;;16.60;10.20;;;;;;;10.50;75.28;98494.68;437209;1253;139792;-68
2023/03/30 19:00:51;;;;;;;11.10;7.30;;;;;;;10.34;76.03;98505.36;436569;1253;139130;-69
2023/03/30 19:10:57;;;;;;;10.00;6.10;;;;;;;10.23;76.97;98493.74;436136;1253;140486;-67
2023/03/30 19:21:03;;;;;;;8.20;6.40;;;;;;;10.03;78.02;98492.69;436230;1251;139551;-68
2023/03/30 19:31:14;;;;;;;9.50;5.80;;;;;;;9.85;78.92;98477.09;436623;1250;141029;-68
2023/03/30 19:41:20;;;;;;;10.70;6.50;;;;;;;9.67;80.23;98453.64;436919;1251;139390;-69
2023/03/30 19:51:26;;;;;;;6.80;5.20;;;;;;;9.52;81.39;98452.42;436621;1254;140225;-68
2023/03/30 20:01:32;;;;;;;8.50;6.00;;;;;;;9.38;82.48;98446.65;436544;1254;140048;-68
2023/03/30 20:11:38;;;;;;;7.50;6.50;;;;;;;9.29;83.20;98440.36;436421;1251;138497;-68
2023/03/30 20:21:44;;;;;;;10.40;7.60;;;;;;;9.22;84.14;98440.01;436664;1254;139554;-67
2023/03/30 20:31:50;;;;;;;11.60;9.20;;;;;;;9.17;84.85;98435.84;436496;1251;138871;-68
2023/03/30 20:41:57;;;;;;;10.40;9.00;;;;;;;9.10;85.31;98429.02;436450;1251;139616;-67
2023/03/30 20:52:04;;;;;;;11.10;9.20;;;;;;;9.09;86.05;98426.35;436767;1251;138707;-68
2023/03/30 21:02:12;;;;;;;11.00;8.30;;;;;;;9.08;86.46;98413.69;436833;1251;139206;-66
2023/03/30 21:12:18;;;;;;;14.50;9.70;;;;;;;8.89;86.52;98398.48;437159;1248;139399;-68
2023/03/30 21:22:24;;;;;;;11.20;9.00;;;;;;;8.65;87.57;98393.11;437236;1251;139101;-68
2023/03/30 21:32:30;;;;;;;10.40;8.30;;;;;;;8.51;88.32;98396.82;437100;1251;139238;-68
2023/03/30 21:42:36;;;;;;;11.00;9.40;;;;;;;8.34;89.27;98395.58;436711;1253;138837;-68
2023/03/30 21:52:42;;;;;;;12.40;8.90;;;;;;;8.20;89.97;98388.45;438481;1251;140660;-68
2023/03/30 22:02:48;;;;;;;9.50;7.40;;;;;;;8.05;90.43;98391.56;436737;1253;139530;-67
2023/03/30 22:12:54;;;;;;;10.30;8.20;;;;;;;7.97;90.91;98408.20;436752;1254;139004;-67
2023/03/30 22:23:00;;;;;;;8.90;7.30;;;;;;;7.90;91.14;98413.58;436590;1253;138784;-67
2023/03/30 22:33:06;;;;;;;9.60;7.10;;;;;;;7.89;92.13;98410.64;436570;1251;138585;-67
2023/03/30 22:43:12;;;;;;;7.50;6.20;;;;;;;7.99;92.29;98417.42;436505;1251;138985;-69
2023/03/30 22:53:18;;;;;;;9.30;7.10;;;;;;;8.10;92.32;98424.31;436564;1251;139883;-68
2023/03/30 23:03:24;;;;;;;7.40;5.60;;;;;;;8.22;91.76;98431.12;437372;1253;139282;-67
2023/03/30 23:13:30;;;;;;;4.60;3.70;;;;;;;8.29;91.17;98430.27;437035;1251;138628;-70
2023/03/30 23:23:37;;;;;;;4.70;3.60;;;;;;;8.43;90.03;98426.50;437776;1251;139507;-68
2023/03/30 23:33:44;;;;;;;4.30;2.90;;;;;;;8.56;88.35;98427.11;437430;1251;138593;-68
2023/03/30 23:43:50;;;;;;;4.30;3.50;;;;;;;8.67;86.99;98420.90;437260;1251;138673;-69
2023/03/30 23:53:58;;;;;;;4.10;2.20;;;;;;;8.71;85.88;98429.73;436833;1253;138542;-67
